Santa Rosa — A8ZS7 — position and weather

sailwx.info

Track history (hours):
 
Tides and Currents Weather Stations Pressure Air Temp Water Temp Dewpoint Dewpoint Depression Visibility Wind Speed Wind Dir Waves Ship Positions

Santa Rosa

Last reported at 2018-Mar-11 08:42 UTC. Time now 2018-Apr-24 21:00 UTC.
Position N 30°29' E 122°31'.
Warning: this ship's position is 44 days out of date.

Length 300 m; draft 10.2 m.

Type: Cargo ship. MMSI: 636092266.

Date/timePositionNaut miles runAvg speedWind from/ knotsBaromVisibWave heightAir tempDewpointWater temp
2018-Mar-11 08:42N 30°29' E 122°31'0 0.1
2018-Mar-11 04:18N 30°29' E 122°31'1 0.2
2018-Mar-10 23:32N 30°30' E 122°32'1 6.6
2018-Mar-10 23:21N 30°30' E 122°34'3 8.9
2018-Mar-10 23:00N 30°30' E 122°37'711.7
2018-Mar-10 22:24N 30°28' E 122°45'  
2018-Mar-07 22:00N 24°20' E 118°10'4 8.3
2018-Mar-07 21:30N 24°17' E 118°13'5 9.8
2018-Mar-07 21:00N 24°13' E 118°17'611.6
2018-Mar-07 20:30N 24°08' E 118°19'713.2
2018-Mar-07 20:00N 24°02' E 118°20'713.8
2018-Mar-07 19:30N 23°56' E 118°14'813.9
2018-Mar-07 18:56N 23°50' E 118°09'713.5
2018-Mar-07 18:27N 23°45' E 118°04'613.9
2018-Mar-07 18:00N 23°41' E 117°60'713.7
2018-Mar-07 17:30N 23°37' E 117°54'714.3
2018-Mar-07 17:00N 23°32' E 117°48'714.6
2018-Mar-07 16:30N 23°28' E 117°41'714.5
2018-Mar-07 16:00N 23°23' E 117°35'714.4
2018-Mar-07 15:29N 23°18' E 117°30'195 4.9
2018-Mar-05 23:40N 22°20' E 114°07'147 5.6
2018-Mar-04 21:30N 22°44' E 116°44'1118.6
2018-Mar-04 20:56N 22°49' E 116°54'818.6
2018-Mar-04 20:29N 22°54' E 117°01'4218.1
2018-Mar-04 18:11N 23°13' E 117°42'317.8
2018-Mar-04 18:01N 23°14' E 117°44'1117.6
2018-Mar-04 17:23N 23°20' E 117°54'717.3
2018-Mar-04 16:59N 23°24' E 118°01'1116.9
2018-Mar-04 16:20N 23°31' E 118°10'717.1
2018-Mar-04 15:56N 23°35' E 118°17'817.0
2018-Mar-04 15:29N 23°39' E 118°23'816.2
2018-Mar-04 14:58N 23°45' E 118°30'815.4
2018-Mar-04 14:25N 23°48' E 118°38'915.3
2018-Mar-04 13:49N 23°54' E 118°47'515.4
2018-Mar-04 13:30N 23°56' E 118°51'815.5
2018-Mar-04 13:01N 24°01' E 118°58'2215.2
2018-Mar-04 11:32N 24°14' E 119°18'015.4
2018-Mar-04 11:30N 24°14' E 119°18'11115.8
2018-Mar-04 04:28N 25°12' E 121°02'816.2
2018-Mar-04 03:59N 25°16' E 121°10'816.4
2018-Mar-04 03:30N 25°19' E 121°18'917.2
2018-Mar-04 03:00N 25°22' E 121°27'1217.6
2018-Mar-04 02:19N 25°19' E 121°40'618.3
2018-Mar-04 02:00N 25°15' E 121°44'611.2
2018-Mar-04 01:30N 25°09' E 121°45'0 0.7
2018-Mar-04 00:59N 25°09' E 121°45'0 0.0
2018-Mar-04 00:29N 25°09' E 121°45'0 0.0
2018-Mar-03 23:59N 25°09' E 121°45'0 0.0
2018-Mar-03 23:29N 25°09' E 121°45'0 0.0
2018-Mar-03 22:59N 25°09' E 121°45'0 0.0
2018-Mar-03 22:29N 25°09' E 121°45'0 0.0
2018-Mar-03 21:59N 25°09' E 121°45'0 0.0
2018-Mar-03 21:29N 25°09' E 121°45'0 0.0
2018-Mar-03 20:59N 25°09' E 121°45'0 0.0
2018-Mar-03 20:29N 25°09' E 121°45'0 0.0
2018-Mar-03 19:59N 25°09' E 121°45'0 0.0
2018-Mar-03 19:29N 25°09' E 121°45'0 0.0
2018-Mar-03 15:29N 25°09' E 121°45'4912.4
2018-Mar-03 11:31N 25°05' E 122°39'014.6
2018-Mar-03 11:30N 25°05' E 122°40'816.6
2018-Mar-03 11:00N 25°02' E 122°49'816.2
2018-Mar-03 10:30N 25°00' E 122°57'816.0
2018-Mar-03 10:01N 24°59' E 123°06'816.8
2018-Mar-03 09:31N 24°56' E 123°15'918.2
2018-Mar-03 09:01N 24°54' E 123°24'917.9
2018-Mar-03 08:30N 24°53' E 123°34'1217.6
2018-Mar-03 07:50N 24°51' E 123°47'24918.0
2018-Mar-02 18:00N 23°06' E 127°54'23219.3 110 / 151014.110.8 23.016.520.0
2018-Mar-02 06:00N 21°30' E 131°42'11218.6 060 / 181013.910.8 26.018.724.0
2018-Mar-02 00:00N 20°42' E 133°30'11519.1 040 / 151015.610.8 27.522.625.0
2018-Mar-01 18:00N 20°00' E 135°24'   040 / 171012.510.8 26.020.825.0
Track history (hours):
 
Tides and Currents Weather Stations Pressure Air Temp Water Temp Dewpoint Dewpoint Depression Visibility Wind Speed Wind Dir Waves Ship Positions

Santa Rosa

Last reported at 2018-Mar-11 08:42 UTC. Time now 2018-Apr-24 21:00 UTC.
Position N 30°29' E 122°31'.
Warning: this ship's position is 44 days out of date.

Length 300 m; draft 10.2 m.

Type: Cargo ship. MMSI: 636092266.

Date/timePositionNaut miles runAvg speedWind from/ knotsBaromVisibWave heightAir tempDewpointWater temp
2018-Mar-11 08:42N 30°29' E 122°31'0 0.1
2018-Mar-11 04:18N 30°29' E 122°31'1 0.2
2018-Mar-10 23:32N 30°30' E 122°32'1 6.6
2018-Mar-10 23:21N 30°30' E 122°34'3 8.9
2018-Mar-10 23:00N 30°30' E 122°37'711.7
2018-Mar-10 22:24N 30°28' E 122°45'  
2018-Mar-07 22:00N 24°20' E 118°10'4 8.3
2018-Mar-07 21:30N 24°17' E 118°13'5 9.8
2018-Mar-07 21:00N 24°13' E 118°17'611.6
2018-Mar-07 20:30N 24°08' E 118°19'713.2
2018-Mar-07 20:00N 24°02' E 118°20'713.8
2018-Mar-07 19:30N 23°56' E 118°14'813.9
2018-Mar-07 18:56N 23°50' E 118°09'713.5
2018-Mar-07 18:27N 23°45' E 118°04'613.9
2018-Mar-07 18:00N 23°41' E 117°60'713.7
2018-Mar-07 17:30N 23°37' E 117°54'714.3
2018-Mar-07 17:00N 23°32' E 117°48'714.6
2018-Mar-07 16:30N 23°28' E 117°41'714.5
2018-Mar-07 16:00N 23°23' E 117°35'714.4
2018-Mar-07 15:29N 23°18' E 117°30'195 4.9
2018-Mar-05 23:40N 22°20' E 114°07'147 5.6
2018-Mar-04 21:30N 22°44' E 116°44'1118.6
2018-Mar-04 20:56N 22°49' E 116°54'818.6
2018-Mar-04 20:29N 22°54' E 117°01'4218.1
2018-Mar-04 18:11N 23°13' E 117°42'317.8
2018-Mar-04 18:01N 23°14' E 117°44'1117.6
2018-Mar-04 17:23N 23°20' E 117°54'717.3
2018-Mar-04 16:59N 23°24' E 118°01'1116.9
2018-Mar-04 16:20N 23°31' E 118°10'717.1
2018-Mar-04 15:56N 23°35' E 118°17'817.0
2018-Mar-04 15:29N 23°39' E 118°23'816.2
2018-Mar-04 14:58N 23°45' E 118°30'815.4
2018-Mar-04 14:25N 23°48' E 118°38'915.3
2018-Mar-04 13:49N 23°54' E 118°47'515.4
2018-Mar-04 13:30N 23°56' E 118°51'815.5
2018-Mar-04 13:01N 24°01' E 118°58'2215.2
2018-Mar-04 11:32N 24°14' E 119°18'015.4
2018-Mar-04 11:30N 24°14' E 119°18'11115.8
2018-Mar-04 04:28N 25°12' E 121°02'816.2
2018-Mar-04 03:59N 25°16' E 121°10'816.4
2018-Mar-04 03:30N 25°19' E 121°18'917.2
2018-Mar-04 03:00N 25°22' E 121°27'1217.6
2018-Mar-04 02:19N 25°19' E 121°40'618.3
2018-Mar-04 02:00N 25°15' E 121°44'611.2
2018-Mar-04 01:30N 25°09' E 121°45'0 0.7
2018-Mar-04 00:59N 25°09' E 121°45'0 0.0
2018-Mar-04 00:29N 25°09' E 121°45'0 0.0
2018-Mar-03 23:59N 25°09' E 121°45'0 0.0
2018-Mar-03 23:29N 25°09' E 121°45'0 0.0
2018-Mar-03 22:59N 25°09' E 121°45'0 0.0
2018-Mar-03 22:29N 25°09' E 121°45'0 0.0
2018-Mar-03 21:59N 25°09' E 121°45'0 0.0
2018-Mar-03 21:29N 25°09' E 121°45'0 0.0
2018-Mar-03 20:59N 25°09' E 121°45'0 0.0
2018-Mar-03 20:29N 25°09' E 121°45'0 0.0
2018-Mar-03 19:59N 25°09' E 121°45'0 0.0
2018-Mar-03 19:29N 25°09' E 121°45'0 0.0
2018-Mar-03 15:29N 25°09' E 121°45'4912.4
2018-Mar-03 11:31N 25°05' E 122°39'014.6
2018-Mar-03 11:30N 25°05' E 122°40'816.6
2018-Mar-03 11:00N 25°02' E 122°49'816.2
2018-Mar-03 10:30N 25°00' E 122°57'816.0
2018-Mar-03 10:01N 24°59' E 123°06'816.8
2018-Mar-03 09:31N 24°56' E 123°15'918.2
2018-Mar-03 09:01N 24°54' E 123°24'917.9
2018-Mar-03 08:30N 24°53' E 123°34'1217.6
2018-Mar-03 07:50N 24°51' E 123°47'24918.0
2018-Mar-02 18:00N 23°06' E 127°54'23219.3 110 / 151014.110.8 23.016.520.0
2018-Mar-02 06:00N 21°30' E 131°42'11218.6 060 / 181013.910.8 26.018.724.0
2018-Mar-02 00:00N 20°42' E 133°30'11519.1 040 / 151015.610.8 27.522.625.0
2018-Mar-01 18:00N 20°00' E 135°24'   040 / 171012.510.8 26.020.825.0

Dump ship's entire track history